Time;durP1;ratioP1;P1;durP2;ratioP2;P2;SDS_P1;SDS_P2;PMS_P1;PMS_P2;Temp;Humidity;BMP_temperature;BMP_pressure;BME280_temperature;BME280_humidity;BME280_pressure;Samples;Min_cycle;Max_cycle;Signal;HPM_P1;HPM_P2
2022/11/02 00:01:32;;;;;;;18.73;11.77;;;;;;;18.10;58.14;102018.44;4885904;29;21009;-80
2022/11/02 00:04:02;;;;;;;19.30;12.07;;;;;;;18.18;57.81;102006.91;4884857;29;20068;-80
2022/11/02 00:06:31;;;;;;;22.63;12.48;;;;;;;18.22;57.83;102008.31;4884380;29;20147;-81
2022/11/02 00:09:03;;;;;;;22.30;12.98;;;;;;;18.24;57.84;102009.00;4900133;29;20091;-80
2022/11/02 00:11:33;;;;;;;21.35;12.85;;;;;;;18.01;57.47;101968.28;4885820;29;20419;-81
2022/11/02 00:14:06;;;;;;;17.98;11.43;;;;;;;17.80;57.56;101937.19;4899648;29;20056;-81
2022/11/02 00:16:37;;;;;;;19.75;12.38;;;;;;;18.02;57.76;101968.13;4900731;29;20704;-80
2022/11/02 00:19:08;;;;;;;20.40;12.98;;;;;;;18.17;57.63;101983.75;4900461;29;20048;-82
2022/11/02 00:22:01;;;;;;;18.58;13.07;;;;;;;18.21;57.90;101998.56;4872757;29;20267;-83
2022/11/02 00:24:34;;;;;;;28.85;14.40;;;;;;;17.66;58.04;101918.88;4898625;29;20150;-82
2022/11/02 00:27:03;;;;;;;24.33;13.82;;;;;;;18.21;58.13;102020.06;4885378;29;20144;-80
2022/11/02 00:29:30;;;;;;;21.92;15.32;;;;;;;18.14;58.01;101987.56;4898167;29;20091;-80
2022/11/02 00:31:59;;;;;;;27.27;15.68;;;;;;;18.38;57.74;102005.78;4882321;29;20304;-81
2022/11/02 00:34:26;;;;;;;27.42;16.17;;;;;;;18.33;58.22;102010.78;4899776;29;20103;-81
2022/11/02 00:36:53;;;;;;;35.60;17.25;;;;;;;17.97;57.84;101945.41;4884970;29;20131;-83
2022/11/02 00:39:21;;;;;;;22.98;17.27;;;;;;;17.38;58.05;101857.16;4886563;29;20052;-82
2022/11/02 00:41:48;;;;;;;36.92;17.67;;;;;;;18.19;58.81;102014.84;4893309;29;20135;-82
2022/11/02 00:44:15;;;;;;;29.10;16.83;;;;;;;17.48;58.66;101914.31;4886879;29;20064;-83
2022/11/02 00:46:41;;;;;;;23.92;15.52;;;;;;;18.14;58.85;102014.47;4887233;29;20075;-82
2022/11/02 00:49:08;;;;;;;25.27;17.08;;;;;;;18.00;59.11;101986.25;4885305;29;20314;-81
2022/11/02 00:51:35;;;;;;;29.77;17.38;;;;;;;18.12;59.26;102021.81;4881897;29;20203;-82
2022/11/02 00:54:01;;;;;;;22.85;16.77;;;;;;;18.12;59.34;102013.75;4885039;29;20048;-82
2022/11/02 00:56:28;;;;;;;29.20;17.30;;;;;;;18.18;58.98;102014.97;4892656;29;20123;-80
2022/11/02 00:59:01;;;;;;;28.08;17.60;;;;;;;18.17;58.92;102019.53;4896506;29;20518;-81
2022/11/02 01:01:27;;;;;;;24.60;17.98;;;;;;;18.01;59.58;102004.09;4882472;29;20048;-81
2022/11/02 01:03:56;;;;;;;29.35;16.38;;;;;;;17.91;60.27;102003.28;4883256;29;20188;-81
2022/11/02 01:06:26;;;;;;;27.58;17.67;;;;;;;17.86;60.62;102016.31;4887296;29;20063;-80
2022/11/02 01:08:54;;;;;;;27.23;17.35;;;;;;;17.63;60.41;101973.72;4886946;29;20605;-80
2022/11/02 01:11:24;;;;;;;24.00;17.40;;;;;;;17.84;60.65;102008.41;4879815;29;20052;-81
2022/11/02 01:13:53;;;;;;;29.15;17.70;;;;;;;17.78;60.72;101992.84;4898346;29;20047;-79
2022/11/02 01:16:20;;;;;;;23.95;17.33;;;;;;;17.53;61.24;101962.19;4885557;29;20064;-81
2022/11/02 01:18:55;;;;;;;25.35;16.25;;;;;;;17.83;60.93;102011.25;4884160;29;20322;-79
2022/11/02 01:21:22;;;;;;;29.20;18.55;;;;;;;17.56;61.67;101967.25;4901508;29;20402;-80
2022/11/02 01:23:50;;;;;;;33.47;18.08;;;;;;;17.70;61.56;101996.28;4884531;29;20529;-79
2022/11/02 01:26:17;;;;;;;26.55;17.52;;;;;;;17.73;61.27;101996.00;4884332;29;20495;-77
2022/11/02 01:28:44;;;;;;;26.67;17.90;;;;;;;17.55;61.64;101972.75;4885225;29;20134;-83
2022/11/02 01:31:11;;;;;;;27.80;17.90;;;;;;;17.73;61.77;101996.00;4892294;29;20043;-81
2022/11/02 01:33:44;;;;;;;28.13;18.10;;;;;;;17.51;61.50;101958.81;4865409;29;21069;-80
2022/11/02 01:36:19;;;;;;;26.80;17.38;;;;;;;17.48;61.84;101959.09;4865649;29;20336;-81
2022/11/02 01:38:48;;;;;;;30.83;17.58;;;;;;;17.68;61.66;101981.34;4890642;29;20072;-79
2022/11/02 01:41:18;;;;;;;27.05;17.55;;;;;;;17.53;61.70;101956.81;4898480;29;20429;-79
2022/11/02 01:43:51;;;;;;;35.67;19.48;;;;;;;17.67;61.67;101991.22;4899630;29;20064;-79
2022/11/02 01:46:21;;;;;;;30.98;18.70;;;;;;;17.44;61.91;101960.38;4893717;29;20139;-80
2022/11/02 01:49:18;;;;;;;32.17;18.23;;;;;;;17.48;62.53;101964.47;4879048;29;20052;-81
2022/11/02 01:51:56;;;;;;;27.33;18.25;;;;;;;17.50;62.08;101968.69;4882242;29;20178;-80
2022/11/02 01:54:36;;;;;;;27.73;19.30;;;;;;;17.53;62.74;101989.03;4879020;29;20074;-80
2022/11/02 01:57:07;;;;;;;32.53;20.10;;;;;;;17.52;62.46;101976.59;4880027;29;20049;-80
2022/11/02 01:59:40;;;;;;;36.63;20.35;;;;;;;17.50;62.94;101973.19;4875267;29;20280;-80
2022/11/02 02:02:15;;;;;;;28.98;20.05;;;;;;;17.43;62.97;101967.59;4878297;29;20853;-80
2022/11/02 02:04:44;;;;;;;32.38;20.02;;;;;;;17.08;63.23;101922.69;4882327;29;20110;-80
2022/11/02 02:07:13;;;;;;;32.42;20.45;;;;;;;17.42;63.36;101975.78;4880507;29;20195;-81
2022/11/02 02:09:54;;;;;;;34.97;19.63;;;;;;;17.17;63.66;101935.22;4878922;29;20063;-81
2022/11/02 02:12:22;;;;;;;36.42;19.98;;;;;;;17.40;63.85;101977.78;4882312;29;20945;-81
2022/11/02 02:14:49;;;;;;;32.80;21.67;;;;;;;17.30;63.70;101973.28;4878576;29;20138;-80
2022/11/02 02:17:30;;;;;;;32.75;21.80;;;;;;;17.33;63.75;101965.94;4880031;29;20055;-80
2022/11/02 02:20:36;;;;;;;27.67;20.83;;;;;;;17.37;64.36;101973.56;4884026;29;20060;-80
2022/11/02 02:23:12;;;;;;;33.13;22.00;;;;;;;16.88;64.45;101895.91;4895431;29;20472;-80
2022/11/02 02:26:16;;;;;;;37.53;22.65;;;;;;;17.27;64.50;101973.59;4896518;29;20560;-80
2022/11/02 02:29:13;;;;;;;34.38;23.52;;;;;;;17.30;64.21;101967.91;4883151;29;20334;-81
2022/11/02 02:31:48;;;;;;;32.17;22.42;;;;;;;17.16;64.65;101946.94;4883451;29;20063;-82
2022/11/02 02:34:19;;;;;;;41.42;23.92;;;;;;;17.12;64.59;101936.66;4898117;29;20841;-78
2022/11/02 02:36:56;;;;;;;35.08;23.63;;;;;;;17.14;64.88;101946.25;4910874;29;20487;-80
2022/11/02 02:39:39;;;;;;;40.85;24.98;;;;;;;17.20;65.35;101968.97;4881118;29;20767;-80
2022/11/02 02:42:17;;;;;;;43.78;24.45;;;;;;;16.81;65.73;101910.91;4878947;29;20516;-81
2022/11/02 02:44:52;;;;;;;36.88;25.20;;;;;;;17.15;65.80;101961.34;4877293;29;20222;-80
2022/11/02 02:47:22;;;;;;;44.83;25.45;;;;;;;17.12;66.45;101971.53;4877403;29;20159;-78
2022/11/02 02:50:26;;;;;;;42.97;26.25;;;;;;;16.92;66.56;101934.03;4867384;29;20068;-79
2022/11/02 02:52:54;;;;;;;40.70;24.98;;;;;;;17.05;66.21;101955.16;4835894;29;20061;-81
2022/11/02 02:55:26;;;;;;;48.33;26.55;;;;;;;17.10;66.39;101955.56;4875360;29;20055;-80
2022/11/02 02:57:54;;;;;;;40.00;25.73;;;;;;;17.13;66.26;101960.63;4892055;29;20088;-80
2022/11/02 03:00:21;;;;;;;41.55;25.65;;;;;;;17.08;66.16;101947.66;4872575;29;20044;-81
2022/11/02 03:02:59;;;;;;;45.17;25.63;;;;;;;16.98;66.91;101946.00;4877729;29;20108;-81
2022/11/02 03:05:28;;;;;;;40.65;25.02;;;;;;;16.78;67.10;101916.56;4874948;29;20055;-80
2022/11/02 03:08:05;;;;;;;45.67;27.00;;;;;;;16.98;67.20;101937.97;4878936;29;20494;-79
2022/11/02 03:10:42;;;;;;;40.08;24.85;;;;;;;17.14;66.89;101956.97;4894372;29;20075;-80
2022/11/02 03:13:35;;;;;;;39.50;27.13;;;;;;;16.79;67.01;101904.84;4880442;29;20297;-80
2022/11/02 03:16:10;;;;;;;42.47;26.23;;;;;;;17.02;66.87;101942.91;4891373;29;20088;-79
2022/11/02 03:18:43;;;;;;;40.42;27.27;;;;;;;17.03;67.84;101957.16;4892331;29;20218;-79
2022/11/02 03:21:18;;;;;;;44.17;26.27;;;;;;;17.05;67.69;101957.84;4875248;29;20063;-81
2022/11/02 03:23:55;;;;;;;44.10;25.65;;;;;;;16.98;68.39;101943.34;4893830;29;20591;-80
2022/11/02 03:26:56;;;;;;;40.22;26.40;;;;;;;16.52;68.53;101885.97;4891542;29;20496;-78
2022/11/02 03:29:44;;;;;;;42.13;26.27;;;;;;;15.98;68.54;101811.44;4897386;29;20163;-80
2022/11/02 03:32:37;;;;;;;46.35;25.33;;;;;;;16.58;68.60;101914.91;4881771;29;20055;-80
2022/11/02 03:35:14;;;;;;;35.55;24.65;;;;;;;16.23;68.65;101849.34;4892819;29;20116;-78
2022/11/02 03:37:55;;;;;;;48.08;24.75;;;;;;;16.88;68.45;101954.94;4864748;29;20151;-80
2022/11/02 03:40:36;;;;;;;42.72;25.85;;;;;;;16.68;68.69;101934.47;4888928;29;20108;-80
2022/11/02 03:43:05;;;;;;;38.65;23.20;;;;;;;16.94;68.39;101982.16;4878274;29;20547;-80
2022/11/02 03:45:38;;;;;;;36.88;23.80;;;;;;;16.15;68.13;101862.63;4875552;29;20399;-80
2022/11/02 03:48:11;;;;;;;41.95;23.38;;;;;;;16.57;68.63;101935.47;4872983;29;20044;-80
2022/11/02 03:50:46;;;;;;;34.78;22.70;;;;;;;16.80;67.54;101953.97;4857125;29;20064;-79
2022/11/02 03:53:24;;;;;;;42.83;24.48;;;;;;;17.03;67.14;101987.50;4855847;29;20435;-82
2022/11/02 03:55:57;;;;;;;34.30;22.92;;;;;;;16.98;67.42;101991.63;4860603;29;20057;-80
2022/11/02 03:58:24;;;;;;;44.33;22.90;;;;;;;16.92;67.35;101984.13;4856199;29;20056;-80
2022/11/02 04:01:00;;;;;;;45.60;22.20;;;;;;;16.78;67.95;101985.41;4850669;29;20053;-81
2022/11/02 04:03:30;;;;;;;33.08;22.38;;;;;;;16.82;68.27;102005.59;4853473;29;20359;-79
2022/11/02 04:05:57;;;;;;;33.92;22.23;;;;;;;16.80;68.14;101987.00;4860882;29;20169;-80
2022/11/02 04:08:34;;;;;;;41.33;22.98;;;;;;;16.74;68.44;101992.03;4860672;29;20159;-78
2022/11/02 04:16:36;;;;;;;36.30;22.55;;;;;;;16.72;67.66;102002.91;4879909;29;20552;-81
2022/11/02 04:25:21;;;;;;;31.20;22.00;;;;;;;16.55;67.52;101982.19;4881792;29;20496;-79
2022/11/02 04:27:25;;;;;;;29.73;20.48;;;;;;;16.69;67.38;102011.25;4899481;29;20477;-80
2022/11/02 04:29:52;;;;;;;28.90;19.45;;;;;;;16.72;67.10;102008.25;4892031;29;20376;-80
2022/11/02 04:33:31;;;;;;;39.13;20.80;;;;;;;16.59;67.60;102021.13;4895069;29;20155;-79
2022/11/02 04:35:06;;;;;;;31.08;19.77;;;;;;;16.42;67.74;101996.72;4899811;29;20059;-80
2022/11/02 04:40:28;;;;;;;31.00;18.05;;;;;;;16.40;68.02;102004.03;4879546;29;20514;-80
2022/11/02 04:43:04;;;;;;;35.65;19.67;;;;;;;16.37;67.60;102001.66;4878364;29;20056;-79
2022/11/02 04:45:31;;;;;;;31.05;18.33;;;;;;;16.27;67.65;101995.44;4883338;29;20950;-80
2022/11/02 04:48:08;;;;;;;29.58;18.95;;;;;;;16.39;68.02;102025.66;4882629;29;20170;-79
2022/11/02 04:50:36;;;;;;;23.70;18.25;;;;;;;16.38;67.76;102030.16;4879707;29;20551;-80
2022/11/02 04:53:06;;;;;;;27.13;18.02;;;;;;;16.22;67.95;102001.22;4858456;29;20229;-80
2022/11/02 04:55:33;;;;;;;31.08;18.40;;;;;;;16.00;67.99;101962.13;4859184;29;20059;-80
2022/11/02 04:58:02;;;;;;;31.65;18.50;;;;;;;16.22;68.02;101998.53;4861969;29;20438;-81
2022/11/02 05:00:29;;;;;;;31.48;18.23;;;;;;;16.36;67.66;102029.44;4870328;29;20074;-78
2022/11/02 05:03:01;;;;;;;28.58;18.35;;;;;;;16.35;67.90;102019.69;4858730;29;20064;-79
2022/11/02 05:05:31;;;;;;;31.10;19.27;;;;;;;16.30;67.69;102015.75;4859622;29;20374;-81
2022/11/02 05:07:57;;;;;;;22.25;17.33;;;;;;;16.26;68.09;102004.44;4859053;29;20068;-79
2022/11/02 05:10:24;;;;;;;28.45;18.13;;;;;;;16.36;67.88;102015.19;4864695;29;20160;-81
2022/11/02 05:12:59;;;;;;;27.63;18.45;;;;;;;16.20;67.91;102003.19;4890729;29;20056;-79
2022/11/02 05:15:27;;;;;;;32.50;18.58;;;;;;;16.28;68.15;102017.72;4889226;29;20579;-80
2022/11/02 05:17:54;;;;;;;27.83;18.33;;;;;;;16.18;68.71;102015.03;4870502;29;20064;-80
2022/11/02 05:20:23;;;;;;;29.23;17.92;;;;;;;15.71;68.46;101939.81;4872978;29;20055;-80
2022/11/02 05:22:50;;;;;;;30.10;19.20;;;;;;;15.50;68.74;101921.13;4885308;29;20273;-79
2022/11/02 05:25:17;;;;;;;30.27;18.08;;;;;;;16.13;68.49;102014.59;4871010;29;20603;-79
2022/11/02 05:27:43;;;;;;;28.15;20.02;;;;;;;15.89;68.67;101978.31;4867856;29;20506;-80
2022/11/02 05:30:11;;;;;;;31.58;18.52;;;;;;;16.13;68.88;102020.81;4876931;29;20138;-79
2022/11/02 05:32:38;;;;;;;31.58;18.95;;;;;;;16.09;68.84;102007.81;4883571;29;20063;-79
2022/11/02 05:35:05;;;;;;;27.35;18.80;;;;;;;16.14;69.16;102027.00;4896793;29;20067;-80
2022/11/02 05:37:33;;;;;;;27.45;17.27;;;;;;;16.21;68.73;102018.28;4872004;29;20336;-80
2022/11/02 05:40:00;;;;;;;30.63;18.73;;;;;;;16.37;67.93;102028.44;4873180;29;20486;-81
2022/11/02 05:42:27;;;;;;;32.67;17.55;;;;;;;16.41;67.58;102029.88;4879221;29;20665;-81
2022/11/02 05:44:54;;;;;;;31.60;19.85;;;;;;;16.26;68.06;102019.69;4891883;29;20080;-79
2022/11/02 05:47:22;;;;;;;31.50;19.65;;;;;;;16.08;68.57;102006.13;4891635;29;20346;-81
2022/11/02 05:49:51;;;;;;;31.08;18.38;;;;;;;16.12;68.95;102029.00;4883797;29;20056;-80
2022/11/02 05:52:18;;;;;;;32.33;19.77;;;;;;;15.99;69.03;102003.28;4888009;29;20785;-79
2022/11/02 05:54:45;;;;;;;31.13;19.15;;;;;;;15.86;68.35;101967.88;4876151;29;20082;-79
2022/11/02 05:57:12;;;;;;;29.85;19.23;;;;;;;15.99;68.15;101989.88;4881273;29;20086;-79
2022/11/02 05:59:41;;;;;;;27.35;17.75;;;;;;;16.22;68.59;102022.66;4875302;29;20456;-80
2022/11/02 06:02:17;;;;;;;27.90;16.73;;;;;;;16.17;67.87;102011.50;4887701;29;20067;-79
2022/11/02 06:04:49;;;;;;;31.73;18.35;;;;;;;16.18;67.61;102007.00;4888981;29;20162;-80
2022/11/02 06:07:18;;;;;;;34.90;19.52;;;;;;;16.26;68.24;102033.94;4863086;29;20430;-79
2022/11/02 06:09:45;;;;;;;32.72;18.35;;;;;;;16.06;68.51;102005.41;4871445;29;20324;-80
2022/11/02 06:12:12;;;;;;;28.90;18.80;;;;;;;15.69;67.92;101939.91;4883855;29;20052;-80
2022/11/02 06:14:38;;;;;;;33.97;18.60;;;;;;;15.72;67.76;101938.81;4885438;29;20083;-81
2022/11/02 06:17:10;;;;;;;29.45;18.80;;;;;;;15.92;67.79;101983.41;4868573;29;20436;-80
2022/11/02 06:19:38;;;;;;;31.10;18.90;;;;;;;16.20;68.21;102032.66;4868964;29;20154;-82
2022/11/02 06:22:04;;;;;;;32.90;19.23;;;;;;;16.16;68.34;102033.91;4868035;29;20490;-78
2022/11/02 06:24:31;;;;;;;35.67;18.92;;;;;;;16.13;68.13;102019.97;4871896;29;20668;-79
2022/11/02 06:26:57;;;;;;;36.08;18.45;;;;;;;16.19;68.03;102040.81;4873856;29;20067;-79
2022/11/02 06:29:25;;;;;;;28.42;18.08;;;;;;;16.03;68.08;102025.28;4886316;29;20131;-80
2022/11/02 06:31:54;;;;;;;27.85;17.80;;;;;;;15.98;68.67;102031.06;4870433;29;20062;-80
2022/11/02 06:34:23;;;;;;;34.05;18.17;;;;;;;16.08;68.53;102054.34;4877328;29;21064;-79
2022/11/02 06:36:49;;;;;;;30.48;18.48;;;;;;;16.10;68.62;102047.88;4874928;29;20562;-79
2022/11/02 06:39:18;;;;;;;31.27;18.67;;;;;;;16.15;68.92;102071.56;4880882;29;20051;-80
2022/11/02 06:41:46;;;;;;;29.23;17.90;;;;;;;15.89;69.29;102023.84;4887085;29;20076;-79
2022/11/02 06:44:13;;;;;;;30.65;18.55;;;;;;;16.08;69.06;102049.84;4894358;29;20056;-77
2022/11/02 06:46:40;;;;;;;26.70;18.75;;;;;;;16.20;68.94;102083.56;4883031;29;20587;-78
2022/11/02 06:49:07;;;;;;;30.20;18.23;;;;;;;16.20;68.43;102066.66;4874651;29;20139;-79
2022/11/02 06:51:33;;;;;;;33.63;20.50;;;;;;;16.21;68.50;102065.66;4894393;29;20394;-76
2022/11/02 06:54:03;;;;;;;28.48;18.27;;;;;;;16.17;68.67;102049.03;4874460;29;20052;-80
2022/11/02 06:56:37;;;;;;;29.15;18.00;;;;;;;16.24;68.84;102052.00;4874671;29;20060;-80
2022/11/02 06:59:03;;;;;;;32.00;19.02;;;;;;;16.38;68.86;102065.00;4876751;29;20432;-82
2022/11/02 07:01:30;;;;;;;29.98;18.20;;;;;;;16.34;67.83;102060.06;4888490;29;20460;-81
2022/11/02 07:03:57;;;;;;;32.55;17.63;;;;;;;16.55;68.06;102089.41;4877350;29;20558;-82
2022/11/02 07:06:23;;;;;;;24.23;17.02;;;;;;;16.43;67.72;102061.88;4864337;29;20447;-81
2022/11/02 07:08:50;;;;;;;29.10;17.67;;;;;;;16.14;67.43;102010.94;4876110;29;20051;-82
2022/11/02 07:11:17;;;;;;;30.90;19.40;;;;;;;16.57;67.86;102074.88;4889271;29;20263;-81
2022/11/02 07:13:44;;;;;;;32.78;19.70;;;;;;;16.47;67.38;102049.06;4893215;29;20059;-80
2022/11/02 07:16:11;;;;;;;26.90;16.45;;;;;;;16.63;66.58;102066.28;4896534;29;20847;-79
2022/11/02 07:18:37;;;;;;;27.60;16.05;;;;;;;16.71;65.67;102054.84;4880858;29;20159;-76
2022/11/02 07:21:04;;;;;;;25.80;15.27;;;;;;;16.90;65.14;102088.06;4885295;29;20515;-80
2022/11/02 07:23:31;;;;;;;23.08;14.48;;;;;;;16.70;65.45;102057.66;4895559;29;20052;-79
2022/11/02 07:26:02;;;;;;;28.80;15.55;;;;;;;16.85;65.92;102101.91;4877707;29;20405;-78
2022/11/02 07:28:28;;;;;;;26.55;15.20;;;;;;;16.92;65.12;102110.19;4876253;29;20345;-80
2022/11/02 07:30:59;;;;;;;31.17;14.07;;;;;;;16.88;64.20;102098.94;4878876;29;20056;-81
2022/11/02 07:33:34;;;;;;;30.73;15.13;;;;;;;16.78;64.21;102088.19;4875234;29;20163;-80
2022/11/02 07:36:05;;;;;;;25.00;13.75;;;;;;;16.94;64.15;102108.22;4885008;29;20052;-80
2022/11/02 07:38:32;;;;;;;28.10;15.37;;;;;;;16.65;64.42;102071.50;4893515;29;20100;-80
2022/11/02 07:41:01;;;;;;;23.80;15.90;;;;;;;16.64;64.25;102067.13;4879326;29;20304;-80
2022/11/02 07:43:30;;;;;;;33.70;16.30;;;;;;;16.85;64.02;102097.38;4883099;29;20582;-81
2022/11/02 07:45:56;;;;;;;36.63;19.23;;;;;;;16.81;64.37;102098.63;4886207;29;20056;-82
2022/11/02 07:48:23;;;;;;;34.95;18.88;;;;;;;16.76;64.59;102095.50;4893865;29;20210;-80
2022/11/02 07:50:58;;;;;;;36.95;20.10;;;;;;;16.72;64.84;102096.75;4890092;29;20093;-81
2022/11/02 07:53:29;;;;;;;39.78;21.15;;;;;;;16.61;64.92;102072.78;4876361;29;20056;-81
2022/11/02 07:56:00;;;;;;;37.83;24.05;;;;;;;16.73;65.41;102103.84;4885576;29;20482;-79
2022/11/02 07:58:26;;;;;;;46.60;23.60;;;;;;;16.64;65.26;102083.22;4881994;29;20063;-81
2022/11/02 08:01:02;;;;;;;44.45;25.35;;;;;;;15.94;65.11;101951.13;4879171;29;20557;-80
2022/11/02 08:03:34;;;;;;;40.47;24.75;;;;;;;16.45;66.32;102050.03;4873578;29;20075;-81
2022/11/02 08:06:04;;;;;;;51.08;28.40;;;;;;;16.65;66.72;102090.25;4875502;29;20474;-79
2022/11/02 08:08:31;;;;;;;44.63;25.70;;;;;;;16.49;66.86;102076.56;4876126;29;20171;-80
2022/11/02 08:11:08;;;;;;;44.28;26.40;;;;;;;16.35;67.19;102051.84;4881326;29;20048;-80
2022/11/02 08:13:37;;;;;;;45.13;25.60;;;;;;;16.49;66.91;102063.19;4891313;29;20056;-80
2022/11/02 08:16:07;;;;;;;51.38;26.25;;;;;;;16.69;67.10;102086.31;4895352;29;20564;-80
2022/11/02 08:18:34;;;;;;;51.25;25.85;;;;;;;16.67;67.08;102083.81;4880152;29;20190;-81
2022/11/02 08:21:04;;;;;;;49.92;26.20;;;;;;;16.66;66.80;102078.56;4880481;29;20048;-80
2022/11/02 08:23:30;;;;;;;42.40;25.42;;;;;;;16.53;67.24;102060.06;4894126;29;20162;-81
2022/11/02 08:25:59;;;;;;;49.10;27.10;;;;;;;16.65;67.26;102066.13;4897263;29;20196;-81
2022/11/02 08:28:31;;;;;;;45.20;27.75;;;;;;;16.76;67.29;102067.84;4893198;29;20167;-81
2022/11/02 08:30:58;;;;;;;42.38;26.02;;;;;;;16.45;67.02;102001.78;4891368;29;20074;-80
2022/11/02 08:33:27;;;;;;;48.72;29.17;;;;;;;16.62;66.86;102004.75;4892671;29;20056;-80
2022/11/02 08:36:02;;;;;;;50.53;29.20;;;;;;;16.95;66.89;102054.44;4881813;29;20130;-81
2022/11/02 08:38:29;;;;;;;46.13;28.27;;;;;;;16.58;66.33;101965.84;4875960;29;20068;-80
2022/11/02 08:40:56;;;;;;;45.25;27.83;;;;;;;16.93;65.97;102007.31;4875998;29;20093;-79
2022/11/02 08:43:23;;;;;;;47.38;26.95;;;;;;;17.35;66.02;102074.84;4883300;29;20063;-81
2022/11/02 08:45:59;;;;;;;41.40;26.15;;;;;;;17.34;65.11;102070.47;4880439;29;20064;-78
2022/11/02 08:48:43;;;;;;;51.70;28.48;;;;;;;17.65;65.07;102100.63;4874929;29;20522;-82
2022/11/02 08:51:11;;;;;;;54.80;27.23;;;;;;;17.65;64.38;102068.41;4879417;29;20593;-79
2022/11/02 08:53:40;;;;;;;50.83;28.27;;;;;;;17.64;64.08;102042.53;4880836;29;20131;-81
2022/11/02 08:56:09;;;;;;;47.55;27.58;;;;;;;17.58;64.58;102021.66;4880811;29;20534;-79
2022/11/02 08:58:39;;;;;;;49.95;27.58;;;;;;;17.92;64.81;102074.84;4880107;29;20566;-80
2022/11/02 09:01:06;;;;;;;51.83;30.52;;;;;;;17.28;64.64;101959.19;4879647;29;20052;-80
2022/11/02 09:03:32;;;;;;;47.65;29.40;;;;;;;18.13;64.07;102071.88;4881071;29;20589;-81
2022/11/02 09:06:03;;;;;;;51.72;31.33;;;;;;;18.21;64.17;102073.84;4893875;29;20056;-81
2022/11/02 09:08:30;;;;;;;47.45;28.52;;;;;;;18.23;64.73;102071.81;4879524;29;20073;-80
2022/11/02 09:11:02;;;;;;;53.03;28.38;;;;;;;18.23;64.12;102069.13;4881566;29;20580;-79
2022/11/02 09:13:31;;;;;;;48.45;30.27;;;;;;;18.34;64.16;102077.00;4895845;29;20165;-79
2022/11/02 09:15:59;;;;;;;49.65;31.63;;;;;;;18.27;63.76;102067.84;4902083;29;20850;-79
2022/11/02 09:18:32;;;;;;;39.95;27.98;;;;;;;18.40;63.81;102079.09;4895885;29;20059;-81
2022/11/02 09:21:04;;;;;;;46.33;27.88;;;;;;;18.32;63.55;102070.91;4877921;29;20059;-81
2022/11/02 09:23:31;;;;;;;;;;;;;;;18.31;63.35;102077.31;4876778;29;20055;-79
2022/11/02 09:26:04;;;;;;;45.60;28.40;;;;;;;18.33;63.51;102061.88;4894930;29;19927;-80
2022/11/02 09:28:32;;;;;;;;;;;;;;;18.33;64.00;102067.25;4879254;29;20127;-80
2022/11/02 09:31:02;;;;;;;41.80;26.77;;;;;;;18.39;63.89;102066.63;4894382;29;19934;-80
2022/11/02 09:33:35;;;;;;;47.05;29.67;;;;;;;18.07;63.21;101998.09;4881829;29;20060;-81
2022/11/02 09:36:04;;;;;;;48.08;29.90;;;;;;;17.77;63.35;101947.34;4880524;29;20060;-80
2022/11/02 09:38:31;;;;;;;48.45;30.52;;;;;;;17.64;63.19;101927.06;4896102;29;20565;-81
2022/11/02 09:40:58;;;;;;;47.47;29.25;;;;;;;18.16;63.23;102001.72;4878051;29;20147;-80
2022/11/02 09:43:40;;;;;;;43.67;28.52;;;;;;;18.57;63.52;102069.34;4880621;29;20056;-79
2022/11/02 09:46:17;;;;;;;47.15;27.17;;;;;;;17.21;63.29;101861.47;4882933;29;20056;-79
2022/11/02 09:48:49;;;;;;;55.70;27.63;;;;;;;18.60;63.20;102066.34;4880347;29;20502;-79
2022/11/02 09:51:22;;;;;;;49.40;29.50;;;;;;;18.50;63.26;102042.22;4880151;29;20459;-80
2022/11/02 09:54:14;;;;;;;45.17;28.27;;;;;;;18.85;63.31;102078.19;4881854;29;20056;-80
2022/11/02 09:56:44;;;;;;;55.20;29.27;;;;;;;18.94;62.83;102069.19;4884877;29;20513;-79
2022/11/02 09:59:13;;;;;;;49.38;31.27;;;;;;;18.87;62.69;102048.44;4882758;29;20052;-81
2022/11/02 10:01:55;;;;;;;43.05;27.95;;;;;;;19.11;62.50;102056.69;4879345;29;20083;-82
2022/11/02 10:04:49;;;;;;;41.08;28.63;;;;;;;19.18;62.75;102038.09;4879463;29;20060;-81
2022/11/02 10:07:24;;;;;;;52.33;30.42;;;;;;;19.36;62.25;102052.31;4875981;29;20227;-82
2022/11/02 10:10:30;;;;;;;48.15;29.23;;;;;;;19.39;61.50;102026.91;4883970;29;20437;-79
2022/11/02 10:13:12;;;;;;;47.13;30.92;;;;;;;19.64;60.99;102047.59;4883064;29;20066;-80
2022/11/02 10:15:42;;;;;;;;;;;;;;;19.64;60.86;102054.84;4883455;29;20080;-80
2022/11/02 10:18:25;;;;;;;48.58;26.75;;;;;;;19.31;61.31;101998.09;4900904;29;20231;-81
2022/11/02 10:20:58;;;;;;;43.47;27.27;;;;;;;19.54;61.37;102035.25;4903531;29;20197;-81
2022/11/02 10:23:31;;;;;;;46.03;25.70;;;;;;;19.61;61.22;102057.84;4901548;29;20064;-81
2022/11/02 10:26:00;;;;;;;41.10;25.58;;;;;;;19.59;61.34;102033.78;4888837;29;20162;-81
2022/11/02 10:28:38;;;;;;;;;;;;;;;19.76;60.53;102053.59;4901391;29;20094;-81
2022/11/02 10:31:21;;;;;;;42.75;25.90;;;;;;;19.72;60.67;102038.75;4887794;29;20208;-81
2022/11/02 10:33:48;;;;;;;44.85;24.13;;;;;;;19.88;60.41;102043.38;4887882;29;20048;-81
2022/11/02 10:36:38;;;;;;;47.95;25.83;;;;;;;19.45;59.72;101933.88;4885731;29;20052;-80
2022/11/02 10:39:22;;;;;;;44.55;25.05;;;;;;;20.19;59.23;102018.50;4884168;29;20215;-82
2022/11/02 10:42:38;;;;;;;39.50;23.65;;;;;;;20.41;58.38;102023.28;4885583;29;20301;-81
2022/11/02 10:45:26;;;;;;;37.75;23.60;;;;;;;20.42;58.80;102003.38;4896311;29;20060;-82
2022/11/02 10:48:02;;;;;;;43.13;23.52;;;;;;;20.52;58.64;102002.38;4882068;29;20159;-81
2022/11/02 10:50:33;;;;;;;37.83;22.83;;;;;;;20.75;57.89;102005.25;4882228;29;20708;-80
2022/11/02 10:53:01;;;;;;;42.92;21.60;;;;;;;20.64;57.98;101991.09;4882662;29;20055;-80
2022/11/02 10:56:14;;;;;;;38.40;20.35;;;;;;;20.69;58.01;101998.69;4882124;29;20087;-79
2022/11/02 10:59:15;;;;;;;33.50;21.90;;;;;;;20.67;57.92;102011.50;4881756;29;20346;-79
2022/11/02 11:01:55;;;;;;;35.33;22.23;;;;;;;19.82;58.16;101872.38;4865665;29;20160;-81
2022/11/02 11:04:28;;;;;;;38.72;24.45;;;;;;;20.69;57.88;102018.41;4898341;29;20052;-81
2022/11/02 11:06:56;;;;;;;37.40;23.25;;;;;;;20.56;58.26;102011.81;4897747;29;20056;-81
2022/11/02 11:09:35;;;;;;;34.15;22.58;;;;;;;20.46;58.17;102001.16;4883528;29;20059;-80
2022/11/02 11:12:19;;;;;;;39.30;22.33;;;;;;;19.85;58.05;101895.47;4899167;29;20111;-82
2022/11/02 11:14:54;;;;;;;30.25;20.85;;;;;;;20.47;58.49;102013.66;4885292;29;20163;-81
2022/11/02 11:17:45;;;;;;;40.78;23.08;;;;;;;20.48;58.39;102007.25;4893578;29;20047;-80
2022/11/02 11:20:38;;;;;;;34.42;21.80;;;;;;;19.97;58.22;101933.72;4880192;29;20044;-81
2022/11/02 11:23:14;;;;;;;33.00;20.27;;;;;;;20.28;58.51;101996.78;4886265;29;20048;-79
2022/11/02 11:25:42;;;;;;;34.20;19.92;;;;;;;20.22;58.72;101992.06;4881926;29;20421;-80
2022/11/02 11:28:35;;;;;;;35.10;21.35;;;;;;;20.08;58.40;101963.06;4881996;29;20313;-82
2022/11/02 11:31:07;;;;;;;32.15;21.25;;;;;;;20.16;58.50;101992.72;4881795;29;20056;-81
2022/11/02 11:33:57;;;;;;;31.05;19.90;;;;;;;19.94;58.70;101953.75;4882953;29;20497;-81
2022/11/02 11:36:29;;;;;;;36.38;22.13;;;;;;;19.88;58.91;101945.47;4883432;29;20052;-81
2022/11/02 11:39:22;;;;;;;35.38;21.52;;;;;;;19.96;59.04;101961.69;4882525;29;20179;-82
2022/11/02 11:41:49;;;;;;;37.67;20.88;;;;;;;19.81;59.21;101930.00;4900061;29;20128;-81
2022/11/02 11:44:16;;;;;;;34.70;20.30;;;;;;;19.52;59.17;101872.97;4881120;29;20131;-81
2022/11/02 11:46:47;;;;;;;34.55;20.77;;;;;;;19.47;59.04;101867.22;4883945;29;20463;-82
2022/11/02 11:49:29;;;;;;;38.15;20.25;;;;;;;20.11;58.95;101957.31;4882438;29;20490;-82